createdAt,value
2023-05-14T00:00:49.732Z,12.60
2023-05-14T00:01:52.383Z,12.60
2023-05-14T00:02:55.493Z,12.50
2023-05-14T00:03:58.325Z,12.50
2023-05-14T00:05:01.302Z,12.50
2023-05-14T00:06:04.208Z,12.50
2023-05-14T00:07:06.851Z,12.50
2023-05-14T00:08:09.473Z,12.50
2023-05-14T00:09:13.250Z,12.50
2023-05-14T00:10:15.867Z,12.50
2023-05-14T00:11:18.702Z,12.50
2023-05-14T00:12:21.269Z,12.50
2023-05-14T00:13:23.955Z,12.50
2023-05-14T00:14:26.675Z,12.50
2023-05-14T00:15:29.448Z,12.50
2023-05-14T00:16:32.046Z,12.50
2023-05-14T00:17:34.665Z,12.50
2023-05-14T00:18:37.372Z,12.60
2023-05-14T00:19:42.142Z,12.60
2023-05-14T00:20:44.731Z,12.60
2023-05-14T00:21:48.397Z,12.60
2023-05-14T00:22:51.163Z,12.60
2023-05-14T00:23:53.729Z,12.60
2023-05-14T00:24:56.312Z,12.60
2023-05-14T00:25:58.909Z,12.60
2023-05-14T00:27:01.463Z,12.60
2023-05-14T00:28:04.463Z,12.60
2023-05-14T00:29:07.215Z,12.60
2023-05-14T00:30:10.985Z,12.60
2023-05-14T00:31:14.546Z,12.60
2023-05-14T00:32:17.245Z,12.60
2023-05-14T00:33:19.837Z,12.70
2023-05-14T00:34:22.541Z,12.60
2023-05-14T00:35:25.227Z,12.60
2023-05-14T00:36:27.877Z,12.60
2023-05-14T00:37:30.644Z,12.60
2023-05-14T00:38:33.246Z,12.60
2023-05-14T00:39:35.936Z,12.60
2023-05-14T00:40:38.638Z,12.60
2023-05-14T00:41:41.192Z,12.60
2023-05-14T00:42:43.895Z,12.60
2023-05-14T00:43:46.539Z,12.60
2023-05-14T00:44:49.122Z,12.50
2023-05-14T00:45:54.212Z,12.50
2023-05-14T00:46:56.829Z,12.50
2023-05-14T00:47:59.598Z,12.50
2023-05-14T00:49:02.411Z,12.50
2023-05-14T00:50:05.752Z,12.50
2023-05-14T00:51:08.706Z,12.50
2023-05-14T00:52:13.318Z,12.50
2023-05-14T00:53:16.894Z,12.50
2023-05-14T00:54:21.016Z,12.50
2023-05-14T00:55:23.803Z,12.40
2023-05-14T00:56:27.664Z,12.40
2023-05-14T00:57:30.569Z,12.40
2023-05-14T00:58:33.175Z,12.40
2023-05-14T00:59:36.058Z,12.30
2023-05-14T01:00:40.324Z,12.30
2023-05-14T01:01:42.982Z,12.30
2023-05-14T01:02:45.630Z,12.20
2023-05-14T01:03:49.128Z,12.20
2023-05-14T01:04:53.712Z,12.20
2023-05-14T01:06:24.554Z,12.20
2023-05-14T01:07:59.902Z,12.10
2023-05-14T01:09:30.020Z,12.10
2023-05-14T01:10:52.833Z,12.00
2023-05-14T01:12:09.003Z,12.00
2023-05-14T01:13:52.633Z,12.00
2023-05-14T01:15:06.152Z,11.90
2023-05-14T01:16:14.273Z,11.90
2023-05-14T01:17:20.167Z,11.90
2023-05-14T01:18:23.625Z,11.80
2023-05-14T01:19:43.984Z,11.80
2023-05-14T01:20:52.274Z,11.80
2023-05-14T01:21:54.880Z,11.70
2023-05-14T01:22:57.914Z,11.70
2023-05-14T01:24:00.541Z,11.70
2023-05-14T01:25:03.229Z,11.70
2023-05-14T01:26:06.205Z,11.60
2023-05-14T01:27:34.751Z,11.60
2023-05-14T01:28:38.535Z,11.60
2023-05-14T01:29:46.856Z,11.50
2023-05-14T01:31:12.595Z,11.50
2023-05-14T01:32:17.811Z,11.50
2023-05-14T01:33:22.620Z,11.50
2023-05-14T01:34:28.592Z,11.40
2023-05-14T01:35:31.425Z,11.40
2023-05-14T01:36:35.383Z,11.40
2023-05-14T01:37:39.085Z,11.40
2023-05-14T01:38:45.797Z,11.40
2023-05-14T01:39:52.001Z,11.30
2023-05-14T01:40:55.589Z,11.30
2023-05-14T01:41:59.012Z,11.30
2023-05-14T01:43:03.745Z,11.30
2023-05-14T01:44:06.677Z,11.30
2023-05-14T01:45:10.085Z,11.20
2023-05-14T01:46:13.379Z,11.20
2023-05-14T01:47:16.150Z,11.20
2023-05-14T01:48:18.716Z,11.20
2023-05-14T01:49:21.368Z,11.20
2023-05-14T01:50:24.221Z,11.20
2023-05-14T01:51:27.510Z,11.10
2023-05-14T01:52:30.151Z,11.10
2023-05-14T01:53:34.919Z,11.10
2023-05-14T01:54:37.702Z,11.10
2023-05-14T01:55:40.263Z,11.10
2023-05-14T01:56:42.957Z,11.10
2023-05-14T01:57:45.650Z,11.10
2023-05-14T01:58:48.372Z,11.10
2023-05-14T01:59:50.956Z,11.00
2023-05-14T02:00:53.510Z,11.00
2023-05-14T02:01:56.419Z,11.00
2023-05-14T02:02:59.511Z,11.00
2023-05-14T02:04:02.246Z,11.00
2023-05-14T02:05:07.040Z,11.00
2023-05-14T02:06:09.825Z,11.00
2023-05-14T02:07:12.499Z,11.00
2023-05-14T02:08:15.130Z,11.00
2023-05-14T02:09:17.822Z,11.00
2023-05-14T02:10:20.840Z,11.00
2023-05-14T02:11:26.327Z,11.00
2023-05-14T02:12:28.865Z,11.00
2023-05-14T02:13:31.538Z,11.10
2023-05-14T02:14:34.281Z,11.10
2023-05-14T02:15:38.960Z,11.00
2023-05-14T02:16:42.074Z,11.00
2023-05-14T02:17:44.690Z,11.00
2023-05-14T02:18:47.402Z,11.00
2023-05-14T02:19:54.655Z,11.00
2023-05-14T02:21:02.389Z,11.00
2023-05-14T02:22:15.764Z,11.00
2023-05-14T02:23:20.620Z,11.00
2023-05-14T02:24:28.465Z,11.00
2023-05-14T02:25:31.278Z,10.90
2023-05-14T02:26:33.853Z,10.90
2023-05-14T02:27:36.485Z,10.90
2023-05-14T02:28:39.180Z,10.90
2023-05-14T02:29:41.806Z,10.90
2023-05-14T02:30:44.422Z,10.90
2023-05-14T02:31:47.308Z,10.80
2023-05-14T02:32:51.289Z,10.80
2023-05-14T02:33:54.131Z,10.80
2023-05-14T02:34:58.474Z,10.80
2023-05-14T02:36:01.122Z,10.80
2023-05-14T02:37:03.937Z,10.80
2023-05-14T02:38:07.540Z,10.80
2023-05-14T02:39:10.250Z,10.80
2023-05-14T02:40:12.944Z,10.80
2023-05-14T02:41:21.521Z,10.70
2023-05-14T02:42:24.184Z,10.70
2023-05-14T02:43:27.492Z,10.70
2023-05-14T02:44:31.857Z,10.60
2023-05-14T02:45:34.563Z,10.60
2023-05-14T02:46:37.380Z,10.60
2023-05-14T02:47:40.208Z,10.60
2023-05-14T02:48:42.797Z,10.60
2023-05-14T02:49:45.654Z,10.60
2023-05-14T02:50:52.156Z,10.50
2023-05-14T02:51:54.806Z,10.50
2023-05-14T02:52:57.430Z,10.50
2023-05-14T02:54:00.252Z,10.50
2023-05-14T02:55:03.090Z,10.50
2023-05-14T02:56:06.501Z,10.50
2023-05-14T02:57:09.080Z,10.50
2023-05-14T02:58:11.996Z,10.50
2023-05-14T02:59:14.694Z,10.50
2023-05-14T03:00:18.540Z,10.50
2023-05-14T03:01:21.752Z,10.60
2023-05-14T03:02:24.690Z,10.60
2023-05-14T03:03:30.720Z,10.60
2023-05-14T03:04:34.017Z,10.60
2023-05-14T03:05:37.224Z,10.60
2023-05-14T03:06:39.824Z,10.60
2023-05-14T03:07:42.583Z,10.60
2023-05-14T03:08:45.800Z,10.60
2023-05-14T03:09:48.432Z,10.70
2023-05-14T03:10:51.128Z,10.70
2023-05-14T03:11:53.751Z,10.70
2023-05-14T03:12:56.492Z,10.70
2023-05-14T03:13:59.078Z,10.70
2023-05-14T03:15:01.663Z,10.70
2023-05-14T03:16:04.507Z,10.80
2023-05-14T03:17:07.374Z,10.80
2023-05-14T03:18:10.135Z,10.80
2023-05-14T03:19:12.901Z,10.80
2023-05-14T03:20:15.982Z,10.90
2023-05-14T03:21:18.884Z,10.90
2023-05-14T03:22:21.511Z,10.90
2023-05-14T03:23:24.125Z,10.90
2023-05-14T03:24:27.988Z,10.90
2023-05-14T03:25:30.690Z,10.90
2023-05-14T03:26:34.250Z,10.90
2023-05-14T03:27:36.845Z,11.00
2023-05-14T03:28:40.822Z,11.00
2023-05-14T03:29:43.417Z,11.00
2023-05-14T03:30:46.084Z,11.00
2023-05-14T03:31:49.986Z,11.00
2023-05-14T03:32:53.617Z,11.10
2023-05-14T03:33:56.256Z,11.10
2023-05-14T03:34:59.317Z,11.10
2023-05-14T03:36:02.001Z,11.10
2023-05-14T03:37:05.021Z,11.20
2023-05-14T03:38:07.676Z,11.20
2023-05-14T03:39:10.379Z,11.20
2023-05-14T03:40:13.215Z,11.20
2023-05-14T03:41:15.872Z,11.30
2023-05-14T03:42:18.494Z,11.20
2023-05-14T03:43:21.108Z,11.30
2023-05-14T03:44:25.436Z,11.30
2023-05-14T03:45:30.418Z,11.40
2023-05-14T03:46:34.687Z,11.40
2023-05-14T03:47:37.579Z,11.40
2023-05-14T03:48:41.060Z,11.50
2023-05-14T03:49:43.695Z,11.50
2023-05-14T03:50:48.360Z,11.50
2023-05-14T03:51:50.981Z,11.50
2023-05-14T03:52:54.974Z,11.60
2023-05-14T03:53:58.451Z,11.60
2023-05-14T03:55:01.035Z,11.60
2023-05-14T03:56:04.134Z,11.70
2023-05-14T03:57:07.036Z,11.70
2023-05-14T03:58:14.313Z,11.80
2023-05-14T03:59:17.497Z,11.80
2023-05-14T04:00:20.308Z,11.90
2023-05-14T04:01:22.905Z,12.00
2023-05-14T04:02:26.780Z,12.10
2023-05-14T04:03:31.708Z,12.10
2023-05-14T04:04:34.690Z,12.20
2023-05-14T04:05:38.301Z,12.20
2023-05-14T04:06:41.010Z,12.30
2023-05-14T04:07:45.271Z,12.30
2023-05-14T04:08:48.517Z,12.40
2023-05-14T04:09:51.110Z,12.40
2023-05-14T04:10:54.261Z,12.50
2023-05-14T04:11:58.859Z,12.50
2023-05-14T04:13:01.455Z,12.60
2023-05-14T04:14:08.202Z,12.60
2023-05-14T04:15:12.127Z,12.70
2023-05-14T04:16:14.794Z,12.70
2023-05-14T04:17:17.452Z,12.70
2023-05-14T04:18:20.141Z,12.80
2023-05-14T04:19:24.401Z,12.80
2023-05-14T04:20:27.266Z,12.80
2023-05-14T04:21:29.910Z,12.90
2023-05-14T04:22:32.512Z,12.90
2023-05-14T04:23:35.148Z,12.90
2023-05-14T04:24:37.812Z,13.00
2023-05-14T04:25:40.365Z,13.00
2023-05-14T04:26:43.157Z,13.00
2023-05-14T04:27:46.004Z,13.00
2023-05-14T04:28:48.633Z,13.00
2023-05-14T04:29:51.215Z,13.00
2023-05-14T04:30:53.811Z,13.00
2023-05-14T04:31:56.415Z,13.00
2023-05-14T04:32:59.131Z,13.00
2023-05-14T04:34:01.782Z,13.00
2023-05-14T04:35:05.507Z,13.00
2023-05-14T04:36:08.627Z,13.00
2023-05-14T04:37:11.180Z,13.00
2023-05-14T04:38:14.566Z,13.00
2023-05-14T04:39:17.263Z,13.00
2023-05-14T04:40:19.940Z,13.10
2023-05-14T04:41:22.595Z,13.10
2023-05-14T04:42:25.617Z,13.10
2023-05-14T04:43:28.251Z,13.10
2023-05-14T04:44:31.185Z,13.10
2023-05-14T04:45:34.465Z,13.10
2023-05-14T04:46:37.252Z,13.10
2023-05-14T04:47:40.129Z,13.10
2023-05-14T04:48:42.742Z,13.10
2023-05-14T04:49:45.532Z,13.10
2023-05-14T04:50:48.215Z,13.10
2023-05-14T04:51:50.847Z,13.10
2023-05-14T04:52:53.411Z,13.20
2023-05-14T04:53:56.103Z,13.20
2023-05-14T04:54:58.764Z,13.20
2023-05-14T04:56:01.292Z,13.20
2023-05-14T04:57:04.056Z,13.30
2023-05-14T04:58:06.615Z,13.30
2023-05-14T04:59:09.289Z,13.40
2023-05-14T05:00:13.334Z,13.40
2023-05-14T05:01:16.126Z,13.40
2023-05-14T05:02:18.727Z,13.50
2023-05-14T05:03:21.622Z,13.50
2023-05-14T05:04:24.642Z,13.60
2023-05-14T05:05:27.245Z,13.60
2023-05-14T05:06:29.980Z,13.60
2023-05-14T05:07:32.795Z,13.70
2023-05-14T05:08:36.341Z,13.80
2023-05-14T05:09:39.037Z,13.80
2023-05-14T05:10:41.686Z,13.90
2023-05-14T05:11:44.452Z,13.90
2023-05-14T05:12:47.197Z,13.90
2023-05-14T05:13:50.337Z,14.00
2023-05-14T05:14:52.920Z,14.00
2023-05-14T05:15:55.612Z,14.10
2023-05-14T05:16:58.208Z,14.10
2023-05-14T05:18:01.192Z,14.20
2023-05-14T05:19:03.882Z,14.20
2023-05-14T05:20:09.714Z,14.20
2023-05-14T05:21:12.512Z,14.30
2023-05-14T05:22:15.449Z,14.30
2023-05-14T05:23:18.068Z,14.40
2023-05-14T05:24:20.723Z,14.40
2023-05-14T05:25:23.266Z,14.50
2023-05-14T05:26:27.392Z,14.50
2023-05-14T05:27:30.027Z,14.60
2023-05-14T05:28:32.675Z,14.60
2023-05-14T05:29:36.676Z,14.60
2023-05-14T05:30:39.883Z,14.70
2023-05-14T05:31:42.678Z,14.70
2023-05-14T05:32:45.556Z,14.80
2023-05-14T05:33:48.307Z,14.80
2023-05-14T05:34:52.019Z,14.90
2023-05-14T05:35:54.697Z,14.90
2023-05-14T05:36:57.472Z,14.90
2023-05-14T05:38:01.600Z,15.00
2023-05-14T05:39:04.499Z,15.00
2023-05-14T05:40:08.103Z,15.10
2023-05-14T05:41:10.864Z,15.10
2023-05-14T05:42:13.446Z,15.10
2023-05-14T05:43:16.207Z,15.10
2023-05-14T05:44:18.791Z,15.10
2023-05-14T05:45:22.064Z,15.10
2023-05-14T05:46:24.683Z,15.10
2023-05-14T05:47:27.457Z,15.10
2023-05-14T05:48:30.236Z,15.10
2023-05-14T05:49:32.944Z,15.20
2023-05-14T05:50:35.581Z,15.20
2023-05-14T05:51:38.202Z,15.20
2023-05-14T05:52:41.172Z,15.30
2023-05-14T05:53:43.765Z,15.30
2023-05-14T05:54:46.541Z,15.40
2023-05-14T05:55:51.645Z,15.40
2023-05-14T05:56:54.577Z,15.50
2023-05-14T05:57:57.262Z,15.50
2023-05-14T05:58:59.816Z,15.50
2023-05-14T06:00:12.703Z,15.50
2023-05-14T06:01:15.346Z,15.60
2023-05-14T06:02:17.969Z,15.60
2023-05-14T06:03:22.100Z,15.70
2023-05-14T06:04:24.788Z,15.80
2023-05-14T06:05:27.641Z,16.00
2023-05-14T06:06:30.803Z,16.10
2023-05-14T06:07:33.508Z,16.30
2023-05-14T06:08:36.092Z,16.50
2023-05-14T06:09:38.677Z,16.60
2023-05-14T06:10:41.311Z,16.70
2023-05-14T06:11:43.866Z,16.80
2023-05-14T06:12:46.470Z,16.90
2023-05-14T06:13:49.237Z,17.00
2023-05-14T06:14:51.827Z,17.10
2023-05-14T06:15:54.432Z,17.10
2023-05-14T06:16:57.519Z,17.20
2023-05-14T06:18:00.288Z,17.30
2023-05-14T06:19:03.001Z,17.30
2023-05-14T06:20:08.022Z,17.40
2023-05-14T06:21:10.670Z,17.40
2023-05-14T06:22:14.855Z,17.60
2023-05-14T06:23:17.449Z,17.60
2023-05-14T06:24:20.422Z,17.80
2023-05-14T06:25:23.082Z,17.80
2023-05-14T06:26:26.458Z,18.00
2023-05-14T06:27:29.305Z,18.10
2023-05-14T06:28:31.937Z,18.10
2023-05-14T06:29:34.537Z,18.10
2023-05-14T06:30:37.175Z,18.10
2023-05-14T06:31:39.843Z,18.10
2023-05-14T06:32:42.625Z,18.10
2023-05-14T06:33:45.345Z,18.00
2023-05-14T06:34:48.383Z,18.00
2023-05-14T06:35:51.185Z,18.00
2023-05-14T06:36:53.802Z,17.90
2023-05-14T06:37:56.449Z,17.90
2023-05-14T06:38:59.051Z,17.90
2023-05-14T06:40:02.492Z,17.90
2023-05-14T06:41:05.208Z,17.90
2023-05-14T06:42:07.920Z,18.00
2023-05-14T06:43:10.613Z,18.00
2023-05-14T06:44:13.228Z,18.10
2023-05-14T06:45:15.898Z,18.20
2023-05-14T06:46:18.457Z,18.30
2023-05-14T06:47:21.083Z,18.30
2023-05-14T06:48:24.025Z,18.40
2023-05-14T06:49:26.802Z,18.50
2023-05-14T06:50:29.368Z,18.60
2023-05-14T06:51:32.611Z,18.70
2023-05-14T06:52:35.387Z,18.80
2023-05-14T06:53:37.956Z,18.80
2023-05-14T06:54:40.572Z,18.90
2023-05-14T06:55:43.316Z,18.90
2023-05-14T06:56:46.713Z,18.90
2023-05-14T06:57:49.489Z,18.90
2023-05-14T06:58:52.034Z,19.00
2023-05-14T06:59:54.596Z,19.00
2023-05-14T07:00:58.012Z,19.00
2023-05-14T07:02:01.354Z,19.10
2023-05-14T07:03:03.991Z,19.20
2023-05-14T07:04:06.872Z,19.20
2023-05-14T07:05:10.728Z,19.30
2023-05-14T07:06:13.987Z,19.30
2023-05-14T07:07:20.574Z,19.30
2023-05-14T07:08:23.286Z,19.40
2023-05-14T07:09:25.929Z,19.40
2023-05-14T07:10:28.539Z,19.50
2023-05-14T07:11:31.127Z,19.60
2023-05-14T07:12:33.825Z,19.60
2023-05-14T07:13:36.512Z,19.80
2023-05-14T07:14:39.165Z,19.80
2023-05-14T07:15:41.785Z,19.90
2023-05-14T07:16:45.817Z,19.90
2023-05-14T07:17:49.017Z,19.90
2023-05-14T07:18:51.739Z,20.00
2023-05-14T07:19:56.034Z,20.10
2023-05-14T07:20:58.646Z,20.20
2023-05-14T07:22:01.714Z,20.30
2023-05-14T07:23:04.275Z,20.40
2023-05-14T07:24:07.190Z,20.50
2023-05-14T07:25:10.143Z,20.50
2023-05-14T07:26:12.770Z,20.60
2023-05-14T07:27:17.027Z,20.70
2023-05-14T07:28:19.817Z,20.80
2023-05-14T07:29:22.473Z,20.90
2023-05-14T07:30:25.593Z,21.00
2023-05-14T07:31:28.527Z,21.20
2023-05-14T07:32:31.193Z,21.30
2023-05-14T07:33:33.754Z,21.40
2023-05-14T07:34:36.350Z,21.60
2023-05-14T07:35:39.116Z,21.70
2023-05-14T07:36:41.820Z,21.70
2023-05-14T07:37:44.570Z,21.80
2023-05-14T07:38:47.297Z,21.80
2023-05-14T07:39:49.961Z,21.80
2023-05-14T07:40:52.792Z,21.80
2023-05-14T07:41:55.399Z,21.80
2023-05-14T07:42:58.001Z,21.70
2023-05-14T07:44:00.709Z,21.70
2023-05-14T07:45:04.173Z,21.80
2023-05-14T07:46:06.768Z,21.70
2023-05-14T07:47:09.904Z,21.70
2023-05-14T07:48:12.773Z,21.60
2023-05-14T07:49:15.655Z,21.50
2023-05-14T07:50:22.301Z,21.40
2023-05-14T07:51:28.223Z,21.30
2023-05-14T07:52:30.841Z,21.30
2023-05-14T07:53:33.495Z,21.30
2023-05-14T07:54:36.098Z,21.40
2023-05-14T07:55:38.700Z,21.50
2023-05-14T07:56:41.651Z,21.60
2023-05-14T07:57:44.216Z,21.60
2023-05-14T07:58:46.922Z,21.60
2023-05-14T07:59:49.691Z,21.60
2023-05-14T08:00:52.337Z,21.70
2023-05-14T08:01:55.134Z,21.60
2023-05-14T08:02:57.959Z,21.60
2023-05-14T08:04:00.755Z,21.60
2023-05-14T08:05:04.176Z,21.70
2023-05-14T08:06:06.918Z,21.60
2023-05-14T08:07:09.575Z,21.60
2023-05-14T08:08:13.042Z,21.50
2023-05-14T08:09:16.043Z,21.50
2023-05-14T08:10:18.756Z,21.30
2023-05-14T08:11:22.414Z,21.30
2023-05-14T08:12:25.488Z,21.20
2023-05-14T08:13:28.150Z,21.10
2023-05-14T08:14:30.792Z,21.10
2023-05-14T08:15:33.388Z,21.00
2023-05-14T08:16:36.284Z,21.00
2023-05-14T08:17:39.015Z,21.00
2023-05-14T08:18:41.665Z,21.00
2023-05-14T08:19:44.402Z,21.00
2023-05-14T08:20:47.171Z,21.00
2023-05-14T08:21:49.917Z,21.00
2023-05-14T08:22:52.483Z,21.10
2023-05-14T08:23:55.068Z,21.10
2023-05-14T08:24:57.748Z,21.20
2023-05-14T08:26:00.379Z,21.30
2023-05-14T08:27:03.022Z,21.30
2023-05-14T08:28:05.961Z,21.40
2023-05-14T08:29:10.436Z,21.50
2023-05-14T08:30:14.088Z,21.60
2023-05-14T08:31:16.948Z,21.70
2023-05-14T08:32:23.753Z,21.70
2023-05-14T08:33:26.686Z,21.80
2023-05-14T08:34:29.414Z,21.90
2023-05-14T08:35:32.047Z,22.10
2023-05-14T08:36:34.649Z,22.20
2023-05-14T08:37:37.336Z,22.30
2023-05-14T08:38:39.958Z,22.30
2023-05-14T08:39:42.532Z,22.20
2023-05-14T08:40:59.712Z,22.20
2023-05-14T08:42:06.622Z,22.20
2023-05-14T08:43:11.048Z,22.20
2023-05-14T08:44:19.552Z,22.20
2023-05-14T08:45:34.455Z,22.20
2023-05-14T08:46:38.979Z,22.20
2023-05-14T08:47:42.089Z,22.10
2023-05-14T08:48:50.696Z,22.00
2023-05-14T08:50:02.523Z,22.00
2023-05-14T08:51:05.290Z,21.90
2023-05-14T08:52:10.992Z,21.90
2023-05-14T08:53:13.751Z,21.90
2023-05-14T08:54:17.960Z,21.90
2023-05-14T08:55:21.018Z,21.80
2023-05-14T08:56:25.613Z,21.70
2023-05-14T08:57:31.212Z,21.70
2023-05-14T08:58:33.890Z,21.60
2023-05-14T08:59:36.884Z,21.70
2023-05-14T09:00:39.712Z,21.70
2023-05-14T09:01:51.089Z,21.80
2023-05-14T09:02:54.543Z,21.80
2023-05-14T09:03:58.094Z,21.80
2023-05-14T09:05:02.951Z,21.80
2023-05-14T09:06:07.016Z,21.80
2023-05-14T09:07:09.824Z,21.80
2023-05-14T09:08:12.669Z,21.80
2023-05-14T09:09:15.422Z,21.70
2023-05-14T09:10:18.776Z,21.60
2023-05-14T09:11:21.566Z,21.50
2023-05-14T09:12:24.391Z,21.50
2023-05-14T09:13:28.319Z,21.40
2023-05-14T09:14:32.926Z,21.30
2023-05-14T09:15:37.569Z,21.20
2023-05-14T09:16:42.757Z,21.00
2023-05-14T09:17:48.025Z,21.00
2023-05-14T09:18:51.599Z,21.00
2023-05-14T09:19:54.703Z,21.00
2023-05-14T09:20:58.254Z,20.90
2023-05-14T09:22:00.866Z,21.00
2023-05-14T09:23:03.536Z,20.90
2023-05-14T09:24:06.707Z,20.90
2023-05-14T09:25:12.467Z,20.90
2023-05-14T09:26:18.733Z,20.80
2023-05-14T09:27:21.590Z,20.70
2023-05-14T09:28:24.652Z,20.70
2023-05-14T09:29:29.977Z,20.70
2023-05-14T09:30:34.244Z,20.70
2023-05-14T09:31:37.444Z,20.80
2023-05-14T09:32:46.220Z,20.90
2023-05-14T09:33:52.485Z,20.90
2023-05-14T09:34:55.044Z,20.90
2023-05-14T09:36:01.959Z,21.00
2023-05-14T09:37:09.785Z,21.00
2023-05-14T09:38:12.557Z,20.90
2023-05-14T09:39:15.099Z,21.00
2023-05-14T09:40:20.523Z,21.00
2023-05-14T09:41:23.454Z,21.00
2023-05-14T09:42:26.690Z,21.00
2023-05-14T09:43:29.240Z,21.10
2023-05-14T09:44:32.076Z,21.00
2023-05-14T09:45:35.668Z,21.10
2023-05-14T09:46:38.531Z,21.10
2023-05-14T09:47:41.429Z,21.10
2023-05-14T09:48:46.127Z,21.10
2023-05-14T09:49:49.874Z,21.20
2023-05-14T09:50:52.501Z,21.20
2023-05-14T09:51:57.219Z,21.30
2023-05-14T09:53:00.978Z,21.30
2023-05-14T09:54:05.796Z,21.30
2023-05-14T09:55:08.886Z,21.30
2023-05-14T09:56:11.540Z,21.30
2023-05-14T09:57:14.180Z,21.20
2023-05-14T09:58:17.083Z,21.20
2023-05-14T09:59:19.696Z,21.20
2023-05-14T10:00:23.354Z,21.30
2023-05-14T10:01:28.933Z,21.30
2023-05-14T10:02:37.711Z,21.50
2023-05-14T10:03:41.260Z,21.60
2023-05-14T10:04:45.134Z,21.70
2023-05-14T10:05:49.643Z,21.80
2023-05-14T10:06:53.616Z,21.80
2023-05-14T10:08:03.908Z,21.80
2023-05-14T10:09:13.846Z,21.90
2023-05-14T10:10:19.999Z,22.00
2023-05-14T10:11:30.323Z,22.00
2023-05-14T10:12:40.817Z,22.20
2023-05-14T10:13:53.511Z,22.30
2023-05-14T10:14:57.921Z,22.40
2023-05-14T10:16:20.514Z,22.60
2023-05-14T10:17:28.192Z,22.80
2023-05-14T10:18:36.339Z,22.80
2023-05-14T10:19:41.029Z,22.80
2023-05-14T10:20:48.725Z,22.80
2023-05-14T10:21:59.684Z,22.90
2023-05-14T10:23:02.447Z,23.00
2023-05-14T10:24:06.581Z,23.10
2023-05-14T10:25:09.816Z,23.20
2023-05-14T10:26:13.233Z,23.40
2023-05-14T10:27:17.305Z,23.50
2023-05-14T10:28:20.316Z,23.60
2023-05-14T10:29:34.586Z,23.50
2023-05-14T10:30:45.881Z,23.50
2023-05-14T10:31:56.150Z,23.50
2023-05-14T10:33:16.781Z,23.50
2023-05-14T10:34:41.235Z,23.50
2023-05-14T10:36:04.353Z,23.50
2023-05-14T10:37:10.714Z,23.50
2023-05-14T10:38:15.406Z,23.50
2023-05-14T10:39:18.100Z,23.50
2023-05-14T10:40:24.670Z,23.40
2023-05-14T10:41:27.663Z,23.40
2023-05-14T10:42:37.631Z,23.40
2023-05-14T10:43:42.203Z,23.40
2023-05-14T10:45:01.875Z,23.40
2023-05-14T10:46:05.228Z,23.40
2023-05-14T10:47:08.025Z,23.50
2023-05-14T10:48:10.918Z,23.50
2023-05-14T10:49:13.610Z,23.60
2023-05-14T10:50:18.347Z,23.60
2023-05-14T10:51:23.033Z,23.60
2023-05-14T10:52:26.881Z,23.70
2023-05-14T10:53:38.716Z,23.60
2023-05-14T10:54:48.620Z,23.60
2023-05-14T10:55:55.770Z,23.70
2023-05-14T10:56:59.911Z,23.60
2023-05-14T10:58:04.818Z,23.60
2023-05-14T10:59:08.373Z,23.50
2023-05-14T11:00:14.700Z,23.50
2023-05-14T11:01:17.790Z,23.40
2023-05-14T11:02:27.047Z,23.30
2023-05-14T11:03:31.822Z,23.20
2023-05-14T11:04:34.455Z,23.10
2023-05-14T11:05:39.345Z,23.00
2023-05-14T11:06:43.296Z,22.80
2023-05-14T11:07:48.789Z,22.70
2023-05-14T11:08:53.455Z,22.60
2023-05-14T11:10:08.617Z,22.50
2023-05-14T11:11:11.330Z,22.30
2023-05-14T11:12:14.206Z,22.30
2023-05-14T11:13:18.742Z,22.20
2023-05-14T11:14:21.519Z,22.10
2023-05-14T11:15:26.598Z,22.10
2023-05-14T11:16:31.076Z,22.10
2023-05-14T11:17:36.752Z,22.20
2023-05-14T11:18:41.753Z,22.20
2023-05-14T11:19:46.254Z,22.30
2023-05-14T11:20:48.930Z,22.30
2023-05-14T11:21:51.782Z,22.40
2023-05-14T11:22:55.368Z,22.40
2023-05-14T11:24:01.645Z,22.40
2023-05-14T11:25:06.429Z,22.40
2023-05-14T11:26:09.077Z,22.40
2023-05-14T11:27:11.897Z,22.30
2023-05-14T11:28:14.582Z,22.40
2023-05-14T11:29:17.749Z,22.40
2023-05-14T11:30:21.878Z,22.40
2023-05-14T11:31:26.177Z,22.50
2023-05-14T11:32:28.831Z,22.50
2023-05-14T11:33:32.133Z,22.60
2023-05-14T11:34:35.910Z,22.70
2023-05-14T11:35:42.978Z,22.80
2023-05-14T11:36:45.785Z,22.90
2023-05-14T11:37:52.494Z,23.00
2023-05-14T11:38:55.234Z,23.00
2023-05-14T11:40:01.399Z,23.00
2023-05-14T11:41:06.235Z,23.00
2023-05-14T11:42:14.610Z,23.00
2023-05-14T11:43:17.475Z,23.00
2023-05-14T11:44:20.461Z,23.00
2023-05-14T11:45:30.040Z,23.10
2023-05-14T11:46:32.725Z,23.10
2023-05-14T11:47:35.810Z,23.10
2023-05-14T11:48:38.540Z,23.10
2023-05-14T11:49:41.379Z,23.10
2023-05-14T11:50:52.323Z,23.20
2023-05-14T11:52:03.069Z,23.20
2023-05-14T11:53:05.658Z,23.30
2023-05-14T11:54:08.252Z,23.20
2023-05-14T11:55:12.844Z,23.20
2023-05-14T11:56:16.023Z,23.20
2023-05-14T11:57:21.096Z,23.20
2023-05-14T11:58:24.852Z,23.10
2023-05-14T11:59:32.639Z,23.10
2023-05-14T12:00:35.395Z,23.20
2023-05-14T12:01:38.643Z,23.20
2023-05-14T12:02:41.335Z,23.20
2023-05-14T12:03:44.195Z,23.20
2023-05-14T12:04:52.237Z,23.20
2023-05-14T12:05:59.577Z,23.10
2023-05-14T12:07:12.322Z,23.10
2023-05-14T12:08:31.525Z,23.00
2023-05-14T12:09:42.609Z,23.00
2023-05-14T12:10:47.435Z,22.90
2023-05-14T12:11:51.622Z,22.80
2023-05-14T12:12:54.531Z,22.90
2023-05-14T12:13:57.136Z,22.90
2023-05-14T12:15:00.517Z,22.90
2023-05-14T12:16:03.887Z,23.00
2023-05-14T12:17:17.743Z,23.00
2023-05-14T12:18:24.500Z,23.10
2023-05-14T12:19:27.804Z,23.20
2023-05-14T12:20:30.386Z,23.30
2023-05-14T12:21:34.782Z,23.40
2023-05-14T12:22:37.821Z,23.30
2023-05-14T12:23:40.484Z,23.40
2023-05-14T12:24:57.347Z,23.30
2023-05-14T12:26:06.256Z,23.40
2023-05-14T12:27:10.886Z,23.40
2023-05-14T12:28:18.010Z,23.40
2023-05-14T12:29:22.147Z,23.40
2023-05-14T12:30:24.758Z,23.40
2023-05-14T12:31:31.711Z,23.40
2023-05-14T12:32:36.058Z,23.40
2023-05-14T12:33:38.631Z,23.30
2023-05-14T12:34:41.300Z,23.30
2023-05-14T12:35:43.880Z,23.30
2023-05-14T12:36:46.800Z,23.30
2023-05-14T12:37:49.461Z,23.30
2023-05-14T12:39:04.010Z,23.20
2023-05-14T12:40:09.694Z,23.20
2023-05-14T12:41:12.415Z,23.10
2023-05-14T12:42:16.650Z,23.10
2023-05-14T12:43:19.917Z,23.10
2023-05-14T12:44:22.696Z,23.00
2023-05-14T12:45:25.423Z,23.00
2023-05-14T12:46:28.267Z,23.00
2023-05-14T12:47:31.952Z,23.00
2023-05-14T12:48:34.615Z,22.90
2023-05-14T12:49:37.265Z,22.90
2023-05-14T12:50:39.972Z,22.90
2023-05-14T12:51:42.680Z,22.90
2023-05-14T12:52:46.612Z,23.00
2023-05-14T12:53:50.458Z,23.00
2023-05-14T12:54:53.002Z,23.00
2023-05-14T12:55:55.580Z,22.90
2023-05-14T12:56:58.931Z,22.80
2023-05-14T12:58:01.542Z,22.80
2023-05-14T12:59:04.317Z,22.70
2023-05-14T13:00:12.965Z,22.70
2023-05-14T13:01:16.672Z,22.60
2023-05-14T13:02:19.478Z,22.50
2023-05-14T13:03:22.133Z,22.50
2023-05-14T13:04:24.836Z,22.40
2023-05-14T13:05:27.842Z,22.40
2023-05-14T13:06:31.773Z,22.40
2023-05-14T13:07:34.370Z,22.40
2023-05-14T13:08:36.984Z,22.40
2023-05-14T13:09:39.712Z,22.40
2023-05-14T13:10:42.288Z,22.50
2023-05-14T13:11:44.923Z,22.50
2023-05-14T13:12:47.460Z,22.60
2023-05-14T13:13:50.048Z,22.60
2023-05-14T13:14:52.678Z,22.70
2023-05-14T13:15:55.617Z,22.70
2023-05-14T13:16:59.141Z,22.80
2023-05-14T13:18:02.136Z,22.80
2023-05-14T13:19:04.802Z,22.90
2023-05-14T13:20:08.389Z,22.80
2023-05-14T13:21:12.638Z,22.90
2023-05-14T13:22:17.152Z,22.80
2023-05-14T13:23:19.823Z,22.80
2023-05-14T13:24:22.468Z,22.70
2023-05-14T13:25:25.520Z,22.60
2023-05-14T13:26:28.376Z,22.60
2023-05-14T13:27:31.049Z,22.50
2023-05-14T13:28:33.796Z,22.40
2023-05-14T13:29:36.473Z,22.40
2023-05-14T13:30:39.189Z,22.30
2023-05-14T13:31:41.857Z,22.30
2023-05-14T13:32:45.038Z,22.30
2023-05-14T13:33:47.699Z,22.20
2023-05-14T13:34:50.466Z,22.20
2023-05-14T13:35:53.067Z,22.20
2023-05-14T13:36:56.281Z,22.20
2023-05-14T13:37:58.899Z,22.20
2023-05-14T13:39:01.506Z,22.20
2023-05-14T13:40:07.486Z,22.20
2023-05-14T13:41:10.078Z,22.20
2023-05-14T13:42:12.666Z,22.20
2023-05-14T13:43:16.978Z,22.10
2023-05-14T13:44:19.557Z,22.10
2023-05-14T13:45:22.177Z,22.10
2023-05-14T13:46:24.913Z,22.10